ADDS METAR Data INFO
IDs: Format: Raw Decoded Include TAF

Data at: 2054 UTC 26 May 2017

KGPM 261950Z 18013G22KT 10SM SCT037 33/21 A2979
KGPM 261850Z 18010G20KT 10SM SCT037 33/22 A2979
KGPM 261750Z 19012G242KT 10SM SKC 32/21 A2980
KGPM 261650Z 18012G22KT 10SM SKC 31/21 A2979
KGPM 261550Z 19015G24KT 10SM SKC 30/21 A2980
KGPM 261450Z 19016G26KT 10SM SKC 28/21 A2980
KGPM 261350Z 19016G26KT 10SM SKC 26/20 A2978
KGPM 261250Z 18010G18KT 10SM SKC 24/20 A2976
KGPM 261150Z 18010KT 10SM SCT019 24/20 A2975
KGPM 261135Z AUTO 18007KT 10SM SCT019 24/20 A2975 RMK AO2 T02380201
KGPM 261115Z AUTO 18011G17KT 10SM BKN017 24/20 A2974 RMK AO2 T02400202
KGPM 261055Z AUTO 18014G21KT 10SM OVC017 24/20 A2973 RMK AO2 T02410201
KGPM 261035Z AUTO 18010G17KT 10SM OVC017 24/20 A2973 RMK AO2 T02400201
KGPM 261015Z AUTO 18010G17KT 10SM OVC017 24/20 A2973 RMK AO2 T02400201
KGPM 260955Z AUTO 18013G18KT 10SM OVC017 24/20 A2972 RMK AO2 T02400200
KGPM 260935Z AUTO 18012G16KT 10SM OVC015 24/20 A2973 RMK AO2 T02380200
KGPM 260915Z AUTO 18013G18KT 10SM OVC015 24/20 A2972 RMK AO2 T02360198
KGPM 260855Z AUTO 18013G19KT 10SM BKN015 24/20 A2971 RMK AO2 T02350197
KGPM 260835Z AUTO 18010G15KT 10SM SCT015 23/20 A2971 RMK AO2 T02310195
KGPM 260815Z AUTO 18012G21KT 10SM CLR 23/19 A2970 RMK AO2 T02330194
KGPM 260755Z AUTO 18010G21KT 10SM CLR 24/19 A2969 RMK AO2 T02350192
KGPM 260735Z AUTO 18012G18KT 10SM CLR 24/19 A2969 RMK AO2 T02380190
KGPM 260715Z AUTO 17010G18KT 10SM CLR 24/19 A2968 RMK AO2 T02400188
KGPM 260655Z AUTO 18013G20KT 10SM CLR 24/19 A2969 RMK AO2 T02410185
KGPM 260635Z AUTO 18014G22KT 140V200 10SM CLR 25/18 A2969 RMK AO2 T02450182
KGPM 260615Z AUTO 17011G19KT 10SM CLR 25/18 A2969 RMK AO2 T02480177
KGPM 260555Z AUTO 17010G17KT 10SM CLR 25/17 A2968 RMK AO2 T02490172 10311 20249 403230160
KGPM 260535Z AUTO 17012G18KT 10SM CLR 25/17 A2968 RMK AO2 T02500165
KGPM 260515Z AUTO 16011G17KT 10SM CLR 25/16 A2967 RMK AO2 T02540159
KGPM 260455Z AUTO 16010G17KT 10SM CLR 26/15 A2967 RMK AO2 T02580153
KGPM 260435Z AUTO 17009G16KT 10SM CLR 26/15 A2967 RMK AO2 T02610148
KGPM 260415Z AUTO 16011G21KT 10SM CLR 27/15 A2966 RMK AO2 T02660145
KGPM 260355Z AUTO 16010G18KT 10SM CLR 27/14 A2965 RMK AO2 T02700140
KGPM 260335Z AUTO 16011KT 10SM CLR 27/14 A2965 RMK AO2 T02710141
KGPM 260315Z AUTO 15012KT 10SM CLR 27/15 A2964 RMK AO2 T02720145
KGPM 260255Z AUTO 15012G17KT 10SM CLR 28/15 A2963 RMK AO2 T02790145
KGPM 260235Z AUTO 15010G16KT 10SM CLR 28/15 A2963 RMK AO2 T02810147
KGPM 260215Z AUTO 15008G14KT 10SM CLR 28/15 A2963 RMK AO2 T02820152
KGPM 260150Z 15008KT 10SM SKC 29/15 A2962
KGPM 260050Z 16012G19KT 10SM SKC 31/14 A2961
KGPM 252350Z 16017G23KT 10SM SKC 31/14 A2961
KGPM 252250Z 18019G27KT 10SM SKC 32/14 A2963
KGPM 252150Z 16014G24KT 10SM SKC 32/14 A2963
KGPM 252050Z 16014G24KT 10SM SKC 32/12 A2964
KGPM 251950Z 16018G26KT 10SM SKC 32/11 A2965
KGPM 251850Z 17015G25KT 10SM SKC 31/11 A2967
KGPM 251750Z 17015G24KT 10SM SKC 29/10 A2970
KGPM 251650Z 18012G22KT 10SM SKC 26/11 A2972
KGPM 251550Z 20012G20KT 10SM SKC 26/11 A2973
KGPM 251450Z 18012G18KT 10SM SKC 23/11 A2972
KGPM 251350Z 13010KT 10SM SKC 19/11 A2972
KGPM 251250Z 13004KT 10SM SKC 19/11 A2973
KGPM 251150Z 14006KT 10SM SKC 17/11 A2972
KGPM 251135Z AUTO 14006KT 10SM CLR 16/11 A2972 RMK AO2 T01600107
KGPM 251115Z AUTO 12005KT 10SM CLR 16/11 A2972 RMK AO2 T01620107
KGPM 251055Z AUTO 12005KT 10SM CLR 17/11 A2971 RMK AO2 T01690105
KGPM 251035Z AUTO 13004KT 10SM CLR 17/11 A2971 RMK AO2 T01660106
KGPM 251015Z AUTO 12004KT 10SM CLR 17/11 A2970 RMK AO2 T01650105
KGPM 250955Z AUTO 13003KT 10SM CLR 16/10 A2971 RMK AO2 T01630104
KGPM 250935Z AUTO 10004KT 10SM CLR 16/11 A2970 RMK AO2 T01620105
KGPM 250915Z AUTO 11003KT 10SM CLR 17/11 A2970 RMK AO2 T01650105
KGPM 250855Z AUTO 00000KT 10SM CLR 17/11 A2970 RMK AO2 T01660105


Page loaded:  20:54 UTC  |   01:54 PM Pacific  |   02:54 PM Mountain  |   03:54 PM Central  |   04:54 PM Eastern

 

ADVISORIES

FORECASTS

FORECASTS

OBSERVATIONS

USER TOOLS

ABOUT US